createdAt,value
2019-03-15T00:02:05.815Z,60.07
2019-03-15T00:04:39.815Z,60.07
2019-03-15T00:07:09.046Z,60.07
2019-03-15T00:09:39.651Z,60.06
2019-03-15T00:12:10.350Z,60.06
2019-03-15T00:14:41.327Z,60.06
2019-03-15T00:17:12.040Z,60.06
2019-03-15T00:19:43.181Z,60.06
2019-03-15T00:22:14.126Z,60.07
2019-03-15T00:24:45.665Z,60.06
2019-03-15T00:27:16.735Z,60.05
2019-03-15T00:29:47.324Z,60.06
2019-03-15T00:32:17.926Z,60.05
2019-03-15T00:34:48.928Z,60.05
2019-03-15T00:37:19.538Z,60.06
2019-03-15T00:39:50.443Z,60.05
2019-03-15T00:42:21.745Z,60.06
2019-03-15T00:44:53.751Z,60.07
2019-03-15T00:47:24.427Z,60.05
2019-03-15T00:49:55.428Z,60.05
2019-03-15T00:52:26.396Z,60.05
2019-03-15T00:54:57.245Z,60.05
2019-03-15T00:57:27.836Z,60.06
2019-03-15T00:59:58.922Z,60.04
2019-03-15T01:02:29.527Z,60.04
2019-03-15T01:05:00.259Z,60.04
2019-03-15T01:07:30.948Z,60.04
2019-03-15T01:10:01.532Z,60.04
2019-03-15T01:12:32.139Z,60.05
2019-03-15T01:15:02.854Z,60.05
2019-03-15T01:17:33.803Z,60.04
2019-03-15T01:20:05.131Z,60.05
2019-03-15T01:22:36.566Z,60.04
2019-03-15T01:25:07.217Z,60.05
2019-03-15T01:27:37.836Z,60.06
2019-03-15T01:30:09.502Z,60.05
2019-03-15T01:32:40.104Z,60.04
2019-03-15T01:35:10.817Z,60.05
2019-03-15T01:37:42.039Z,60.04
2019-03-15T01:40:12.833Z,60.05
2019-03-15T01:42:44.105Z,60.04
2019-03-15T01:45:15.151Z,60.04
2019-03-15T01:47:45.771Z,60.05
2019-03-15T01:50:16.385Z,60.05
2019-03-15T01:52:47.579Z,60.05
2019-03-15T01:55:18.489Z,60.05
2019-03-15T01:57:49.104Z,60.05
2019-03-15T02:00:19.839Z,60.05
2019-03-15T02:02:50.439Z,60.05
2019-03-15T02:05:21.357Z,60.16
2019-03-15T02:07:52.161Z,60.27
2019-03-15T02:10:23.002Z,60.25
2019-03-15T02:12:53.607Z,60.37
2019-03-15T02:15:24.351Z,60.37
2019-03-15T02:17:54.987Z,60.39
2019-03-15T02:20:25.577Z,60.41
2019-03-15T02:22:56.357Z,60.32
2019-03-15T02:25:27.559Z,60.75
2019-03-15T02:27:58.803Z,100.00
2019-03-15T02:30:29.901Z,100.00
2019-03-15T02:33:00.492Z,62.01
2019-03-15T02:35:31.462Z,100.00
2019-03-15T02:38:02.286Z,100.00
2019-03-15T02:40:33.285Z,100.00
2019-03-15T02:43:03.996Z,100.00
2019-03-15T02:45:34.776Z,100.00
2019-03-15T02:48:05.399Z,100.00
2019-03-15T02:50:35.990Z,100.00
2019-03-15T02:53:06.826Z,100.00
2019-03-15T02:55:37.833Z,100.00
2019-03-15T02:58:08.442Z,100.00
2019-03-15T03:00:39.291Z,100.00
2019-03-15T03:03:11.012Z,100.00
2019-03-15T03:05:41.599Z,100.00
2019-03-15T03:08:13.586Z,100.00
2019-03-15T03:10:45.026Z,100.00
2019-03-15T03:13:15.940Z,100.00
2019-03-15T03:15:47.013Z,100.00
2019-03-15T03:18:17.635Z,100.00
2019-03-15T03:20:48.958Z,100.00
2019-03-15T03:23:19.889Z,100.00
2019-03-15T03:25:50.774Z,100.00
2019-03-15T03:28:21.732Z,100.00
2019-03-15T03:30:52.855Z,100.00
2019-03-15T03:33:23.798Z,100.00
2019-03-15T03:35:54.698Z,100.00
2019-03-15T03:38:25.427Z,100.00
2019-03-15T03:40:56.770Z,100.00
2019-03-15T03:43:28.014Z,100.00
2019-03-15T03:45:58.714Z,100.00
2019-03-15T03:48:29.323Z,100.00
2019-03-15T03:51:00.329Z,100.00
2019-03-15T03:53:31.464Z,100.00
2019-03-15T03:56:02.404Z,100.00
2019-03-15T03:58:33.383Z,100.00
2019-03-15T04:01:07.407Z,100.00
2019-03-15T04:03:36.505Z,100.00
2019-03-15T04:06:07.199Z,100.00
2019-03-15T04:08:38.317Z,100.00
2019-03-15T04:11:08.922Z,100.00
2019-03-15T04:13:39.528Z,100.00
2019-03-15T04:16:11.707Z,100.00
2019-03-15T04:18:42.325Z,100.00
2019-03-15T04:21:12.939Z,100.00
2019-03-15T04:23:43.738Z,100.00
2019-03-15T04:26:14.446Z,100.00
2019-03-15T04:28:45.973Z,100.00
2019-03-15T04:31:17.145Z,100.00
2019-03-15T04:33:47.987Z,100.00
2019-03-15T04:36:18.741Z,100.00
2019-03-15T04:38:49.483Z,100.00
2019-03-15T04:41:20.080Z,100.00
2019-03-15T04:43:51.187Z,100.00
2019-03-15T04:46:21.965Z,100.00
2019-03-15T04:48:52.914Z,100.00
2019-03-15T04:51:23.546Z,100.00
2019-03-15T04:53:54.515Z,100.00
2019-03-15T04:56:25.120Z,100.00
2019-03-15T04:58:56.161Z,100.00
2019-03-15T05:01:26.757Z,100.00
2019-03-15T05:03:57.721Z,100.00
2019-03-15T05:06:28.979Z,100.00
2019-03-15T05:08:59.599Z,100.00
2019-03-15T05:11:30.184Z,100.00
2019-03-15T05:14:01.184Z,100.00
2019-03-15T05:16:31.777Z,100.00
2019-03-15T05:19:02.373Z,100.00
2019-03-15T05:21:33.151Z,100.00
2019-03-15T05:24:03.745Z,100.00
2019-03-15T05:26:34.688Z,100.00
2019-03-15T05:29:06.285Z,100.00
2019-03-15T05:31:36.906Z,100.00
2019-03-15T05:34:08.164Z,100.00
2019-03-15T05:36:38.877Z,100.00
2019-03-15T05:39:09.663Z,100.00
2019-03-15T05:41:40.257Z,100.00
2019-03-15T05:44:10.883Z,100.00
2019-03-15T05:46:41.829Z,100.00
2019-03-15T05:49:12.473Z,100.00
2019-03-15T05:51:43.168Z,100.00
2019-03-15T05:54:14.304Z,100.00
2019-03-15T05:56:44.901Z,100.00
2019-03-15T05:59:15.707Z,100.00
2019-03-15T06:01:46.587Z,100.00
2019-03-15T06:04:17.206Z,100.00
2019-03-15T06:06:48.001Z,100.00
2019-03-15T06:09:18.627Z,100.00
2019-03-15T06:11:49.573Z,100.00
2019-03-15T06:14:20.355Z,100.00
2019-03-15T06:16:50.944Z,100.00
2019-03-15T06:19:21.896Z,100.00
2019-03-15T06:21:52.958Z,100.00
2019-03-15T06:24:23.579Z,100.00
2019-03-15T06:26:54.698Z,100.00
2019-03-15T06:29:25.454Z,100.00
2019-03-15T06:31:56.044Z,100.00
2019-03-15T06:34:26.987Z,100.00
2019-03-15T06:36:57.760Z,100.00
2019-03-15T06:39:28.362Z,100.00
2019-03-15T06:41:58.954Z,100.00
2019-03-15T06:44:30.372Z,100.00
2019-03-15T06:47:01.296Z,100.00
2019-03-15T06:49:32.269Z,100.00
2019-03-15T06:52:02.887Z,100.00
2019-03-15T06:54:33.822Z,100.00
2019-03-15T06:57:04.725Z,100.00
2019-03-15T06:59:35.340Z,100.00
2019-03-15T07:02:05.953Z,100.00
2019-03-15T07:04:37.647Z,100.00
2019-03-15T07:07:08.230Z,100.00
2019-03-15T07:09:38.851Z,100.00
2019-03-15T07:12:10.090Z,100.00
2019-03-15T07:14:40.792Z,100.00
2019-03-15T07:17:11.397Z,100.00
2019-03-15T07:19:42.153Z,100.00
2019-03-15T07:22:13.080Z,100.00
2019-03-15T07:24:44.428Z,100.00
2019-03-15T07:27:15.464Z,100.00
2019-03-15T07:29:46.410Z,100.00
2019-03-15T07:32:17.454Z,100.00
2019-03-15T07:34:48.335Z,100.00
2019-03-15T07:37:19.015Z,100.00
2019-03-15T07:39:49.621Z,100.00
2019-03-15T07:42:20.217Z,100.00
2019-03-15T07:44:51.268Z,100.00
2019-03-15T07:47:21.882Z,100.00
2019-03-15T07:49:52.783Z,100.00
2019-03-15T07:52:24.398Z,100.00
2019-03-15T07:54:55.473Z,100.00
2019-03-15T07:57:26.086Z,100.00
2019-03-15T07:59:56.842Z,100.00
2019-03-15T08:02:27.577Z,100.00
2019-03-15T08:04:58.579Z,100.00
2019-03-15T08:07:36.436Z,100.00
2019-03-15T08:10:01.518Z,100.00
2019-03-15T08:12:32.240Z,100.00
2019-03-15T08:15:02.849Z,100.00
2019-03-15T08:17:33.759Z,100.00
2019-03-15T08:20:04.576Z,100.00
2019-03-15T08:22:35.268Z,100.00
2019-03-15T08:25:06.740Z,100.00
2019-03-15T08:27:37.356Z,100.00
2019-03-15T08:30:11.221Z,100.00
2019-03-15T08:32:43.272Z,100.00
2019-03-15T08:35:14.151Z,100.00
2019-03-15T08:37:44.952Z,100.00
2019-03-15T08:40:15.562Z,100.00
2019-03-15T08:42:46.183Z,100.00
2019-03-15T08:45:16.983Z,100.00
2019-03-15T08:47:47.946Z,100.00
2019-03-15T08:50:18.596Z,100.00
2019-03-15T08:52:49.386Z,100.00
2019-03-15T08:55:20.175Z,100.00
2019-03-15T08:57:51.137Z,100.00
2019-03-15T09:00:21.912Z,100.00
2019-03-15T09:02:53.023Z,100.00
2019-03-15T09:05:23.619Z,100.00
2019-03-15T09:07:54.225Z,100.00
2019-03-15T09:10:24.955Z,100.00
2019-03-15T09:12:56.031Z,100.00
2019-03-15T09:15:26.820Z,100.00
2019-03-15T09:17:58.176Z,100.00
2019-03-15T09:20:30.429Z,100.00
2019-03-15T09:23:01.287Z,100.00
2019-03-15T09:25:32.235Z,100.00
2019-03-15T09:28:03.104Z,100.00
2019-03-15T09:30:33.900Z,100.00
2019-03-15T09:33:04.602Z,100.00
2019-03-15T09:35:35.595Z,100.00
2019-03-15T09:38:10.183Z,100.00
2019-03-15T09:40:39.503Z,100.00
2019-03-15T09:43:10.137Z,100.00
2019-03-15T09:45:40.853Z,100.00
2019-03-15T09:48:11.543Z,100.00
2019-03-15T09:50:51.319Z,100.00
2019-03-15T09:53:14.457Z,100.00
2019-03-15T09:55:45.432Z,100.00
2019-03-15T09:58:16.253Z,100.00
2019-03-15T10:00:46.889Z,100.00
2019-03-15T10:03:22.547Z,100.00
2019-03-15T10:05:49.830Z,100.00
2019-03-15T10:08:23.310Z,100.00
2019-03-15T10:10:52.742Z,100.00
2019-03-15T10:13:23.399Z,100.00
2019-03-15T10:15:55.649Z,100.00
2019-03-15T10:18:26.639Z,100.00
2019-03-15T10:20:57.618Z,100.00
2019-03-15T10:23:28.417Z,100.00
2019-03-15T10:25:59.049Z,100.00
2019-03-15T10:28:29.654Z,100.00
2019-03-15T10:31:00.759Z,100.00
2019-03-15T10:33:31.643Z,100.00
2019-03-15T10:36:02.256Z,100.00
2019-03-15T10:38:33.629Z,100.00
2019-03-15T10:41:04.618Z,100.00
2019-03-15T10:43:35.221Z,100.00
2019-03-15T10:46:06.520Z,100.00
2019-03-15T10:48:37.176Z,100.00
2019-03-15T10:51:07.784Z,100.00
2019-03-15T10:53:38.550Z,100.00
2019-03-15T10:56:09.482Z,100.00
2019-03-15T10:58:40.089Z,100.00
2019-03-15T11:01:10.837Z,100.00
2019-03-15T11:03:41.712Z,100.00
2019-03-15T11:06:12.301Z,100.00
2019-03-15T11:08:44.899Z,100.00
2019-03-15T11:11:16.311Z,100.00
2019-03-15T11:13:46.929Z,100.00
2019-03-15T11:16:17.516Z,100.00
2019-03-15T11:18:48.382Z,100.00
2019-03-15T11:21:19.585Z,100.00
2019-03-15T11:23:50.195Z,100.00
2019-03-15T11:26:20.839Z,100.00
2019-03-15T11:28:51.456Z,100.00
2019-03-15T11:31:22.067Z,100.00
2019-03-15T11:33:52.868Z,100.00
2019-03-15T11:36:23.500Z,100.00
2019-03-15T11:38:54.107Z,100.00
2019-03-15T11:41:24.814Z,100.00
2019-03-15T11:43:55.398Z,100.00
2019-03-15T11:46:26.345Z,100.00
2019-03-15T11:48:57.033Z,100.00
2019-03-15T11:51:27.638Z,100.00
2019-03-15T11:53:58.601Z,100.00
2019-03-15T11:56:29.560Z,100.00
2019-03-15T11:59:00.172Z,100.00
2019-03-15T12:01:31.121Z,100.00
2019-03-15T12:04:01.747Z,100.00
2019-03-15T12:06:32.371Z,100.00
2019-03-15T12:09:03.932Z,100.00
2019-03-15T12:11:34.652Z,100.00
2019-03-15T12:14:05.257Z,100.00
2019-03-15T12:16:35.862Z,100.00
2019-03-15T12:19:06.581Z,100.00
2019-03-15T12:21:37.187Z,100.00
2019-03-15T12:24:07.776Z,100.00
2019-03-15T12:26:40.436Z,100.00
2019-03-15T12:29:11.287Z,100.00
2019-03-15T12:31:42.171Z,100.00
2019-03-15T12:34:15.262Z,100.00
2019-03-15T12:36:46.187Z,100.00
2019-03-15T12:39:16.787Z,100.00
2019-03-15T12:41:47.790Z,100.00
2019-03-15T12:44:18.771Z,100.00
2019-03-15T12:46:49.390Z,100.00
2019-03-15T12:49:20.155Z,100.00
2019-03-15T12:51:51.051Z,100.00
2019-03-15T12:54:21.928Z,100.00
2019-03-15T12:56:53.983Z,100.00
2019-03-15T12:59:25.176Z,100.00
2019-03-15T13:01:55.860Z,100.00
2019-03-15T13:04:26.608Z,100.00
2019-03-15T13:06:57.216Z,100.00
2019-03-15T13:09:27.878Z,100.00
2019-03-15T13:11:58.586Z,100.00
2019-03-15T13:14:29.276Z,100.00
2019-03-15T13:17:00.240Z,100.00
2019-03-15T13:19:31.388Z,100.00
2019-03-15T13:22:02.010Z,100.00
2019-03-15T13:24:32.631Z,100.00
2019-03-15T13:27:07.780Z,100.00
2019-03-15T13:29:36.304Z,100.00
2019-03-15T13:32:06.915Z,100.00
2019-03-15T13:34:38.488Z,100.00
2019-03-15T13:37:09.082Z,100.00
2019-03-15T13:39:40.016Z,100.00
2019-03-15T13:42:10.791Z,100.00
2019-03-15T13:44:41.407Z,100.00
2019-03-15T13:47:12.358Z,100.00
2019-03-15T13:49:42.969Z,100.00
2019-03-15T13:52:13.566Z,100.00
2019-03-15T13:54:44.287Z,100.00
2019-03-15T13:57:21.284Z,100.00
2019-03-15T13:59:48.198Z,100.00
2019-03-15T14:02:18.805Z,100.00
2019-03-15T14:04:49.538Z,100.00
2019-03-15T14:07:20.302Z,100.00
2019-03-15T14:09:50.943Z,100.00
2019-03-15T14:12:22.004Z,100.00
2019-03-15T14:14:52.608Z,100.00
2019-03-15T14:17:23.201Z,100.00
2019-03-15T14:19:53.975Z,100.00
2019-03-15T14:22:25.026Z,100.00
2019-03-15T14:24:55.624Z,100.00
2019-03-15T14:27:36.929Z,100.00
2019-03-15T14:29:58.717Z,100.00
2019-03-15T14:32:29.661Z,100.00
2019-03-15T14:35:00.842Z,100.00
2019-03-15T14:37:31.507Z,100.00
2019-03-15T14:40:02.957Z,100.00
2019-03-15T14:42:34.048Z,100.00
2019-03-15T14:45:04.790Z,100.00
2019-03-15T14:47:36.118Z,100.00
2019-03-15T14:50:07.470Z,100.00
2019-03-15T14:52:38.184Z,100.00
2019-03-15T14:55:09.081Z,100.00
2019-03-15T14:57:51.207Z,100.00
2019-03-15T15:00:13.959Z,100.00
2019-03-15T15:02:44.554Z,100.00
2019-03-15T15:05:15.417Z,100.00
2019-03-15T15:07:46.170Z,100.00
2019-03-15T15:10:17.085Z,100.00
2019-03-15T15:12:47.994Z,100.00
2019-03-15T15:15:19.743Z,100.00
2019-03-15T15:17:50.337Z,100.00
2019-03-15T15:20:20.944Z,100.00
2019-03-15T15:22:51.678Z,100.00
2019-03-15T15:25:22.283Z,100.00
2019-03-15T15:28:03.897Z,100.00
2019-03-15T15:30:25.192Z,100.00
2019-03-15T15:32:56.441Z,100.00
2019-03-15T15:35:27.237Z,100.00
2019-03-15T15:37:58.217Z,100.00
2019-03-15T15:40:28.899Z,100.00
2019-03-15T15:42:59.924Z,100.00
2019-03-15T15:45:30.596Z,100.00
2019-03-15T15:48:01.220Z,100.00
2019-03-15T15:50:32.404Z,100.00
2019-03-15T15:53:03.014Z,100.00
2019-03-15T15:55:34.027Z,100.00
2019-03-15T15:58:16.947Z,100.00
2019-03-15T16:00:37.149Z,100.00
2019-03-15T16:03:08.293Z,100.00
2019-03-15T16:05:39.251Z,100.00
2019-03-15T16:08:09.872Z,100.00
2019-03-15T16:10:40.656Z,100.00
2019-03-15T16:13:17.307Z,100.00
2019-03-15T16:15:44.237Z,100.00
2019-03-15T16:18:15.849Z,100.00
2019-03-15T16:20:46.579Z,100.00
2019-03-15T16:23:17.184Z,100.00
2019-03-15T16:25:48.200Z,100.00
2019-03-15T16:28:31.026Z,100.00
2019-03-15T16:30:51.397Z,100.00
2019-03-15T16:33:22.232Z,100.00
2019-03-15T16:35:53.720Z,100.00
2019-03-15T16:38:24.733Z,100.00
2019-03-15T16:40:55.544Z,100.00
2019-03-15T16:43:26.460Z,100.00
2019-03-15T16:45:57.420Z,100.00
2019-03-15T16:48:28.214Z,100.00
2019-03-15T16:50:59.529Z,100.00
2019-03-15T16:53:30.329Z,100.00
2019-03-15T16:56:01.149Z,100.00
2019-03-15T16:58:44.529Z,100.00
2019-03-15T17:01:04.093Z,100.00
2019-03-15T17:03:35.035Z,100.00
2019-03-15T17:06:05.788Z,100.00
2019-03-15T17:08:36.690Z,100.00
2019-03-15T17:11:07.449Z,100.00
2019-03-15T17:13:38.874Z,100.00
2019-03-15T17:16:10.248Z,100.00
2019-03-15T17:18:41.584Z,100.00
2019-03-15T17:21:12.364Z,100.00
2019-03-15T17:23:43.313Z,100.00
2019-03-15T17:26:14.043Z,100.00
2019-03-15T17:28:57.829Z,100.00
2019-03-15T17:31:17.296Z,100.00
2019-03-15T17:33:47.928Z,100.00
2019-03-15T17:36:18.757Z,100.00
2019-03-15T17:38:49.647Z,100.00
2019-03-15T17:41:20.372Z,100.00
2019-03-15T17:43:51.731Z,100.00
2019-03-15T17:46:22.460Z,100.00
2019-03-15T17:48:53.082Z,100.00
2019-03-15T17:51:23.841Z,100.00
2019-03-15T17:53:54.784Z,100.00
2019-03-15T17:56:25.754Z,100.00
2019-03-15T17:58:56.673Z,100.00
2019-03-15T18:01:27.746Z,100.00
2019-03-15T18:03:58.865Z,100.00
2019-03-15T18:06:29.978Z,100.00
2019-03-15T18:09:00.582Z,100.00
2019-03-15T18:11:31.639Z,100.00
2019-03-15T18:14:02.261Z,100.00
2019-03-15T18:16:33.305Z,100.00
2019-03-15T18:19:04.458Z,100.00
2019-03-15T18:21:35.480Z,100.00
2019-03-15T18:24:06.111Z,100.00
2019-03-15T18:26:37.071Z,100.00
2019-03-15T18:29:08.048Z,100.00
2019-03-15T18:31:38.684Z,100.00
2019-03-15T18:34:10.338Z,100.00
2019-03-15T18:36:43.069Z,100.00
2019-03-15T18:39:15.204Z,100.00
2019-03-15T18:41:50.414Z,100.00
2019-03-15T18:44:20.950Z,100.00
2019-03-15T18:46:52.248Z,100.00
2019-03-15T18:49:22.887Z,100.00
2019-03-15T18:51:53.737Z,100.00
2019-03-15T18:54:24.316Z,100.00
2019-03-15T18:56:56.079Z,100.00
2019-03-15T18:59:39.391Z,100.00
2019-03-15T19:01:59.827Z,100.00
2019-03-15T19:04:30.594Z,100.00
2019-03-15T19:07:01.208Z,100.00
2019-03-15T19:09:31.913Z,100.00
2019-03-15T19:12:02.537Z,100.00
2019-03-15T19:14:33.535Z,100.00
2019-03-15T19:17:04.487Z,100.00
2019-03-15T19:19:35.092Z,100.00
2019-03-15T19:22:05.720Z,100.00
2019-03-15T19:24:36.352Z,100.00
2019-03-15T19:27:07.667Z,100.00
2019-03-15T19:29:38.398Z,100.00
2019-03-15T19:32:09.230Z,100.00
2019-03-15T19:34:39.824Z,100.00
2019-03-15T19:37:10.513Z,100.00
2019-03-15T19:39:41.847Z,100.00
2019-03-15T19:42:12.735Z,100.00
2019-03-15T19:44:43.689Z,100.00
2019-03-15T19:47:14.684Z,100.00
2019-03-15T19:49:45.346Z,100.00
2019-03-15T19:52:15.963Z,100.00
2019-03-15T19:54:59.813Z,100.00
2019-03-15T19:57:19.904Z,100.00
2019-03-15T19:59:50.524Z,100.00
2019-03-15T20:02:21.526Z,100.00
2019-03-15T20:04:52.511Z,100.00
2019-03-15T20:07:23.229Z,100.00
2019-03-15T20:09:54.099Z,100.00
2019-03-15T20:12:24.720Z,100.00
2019-03-15T20:14:55.509Z,100.00
2019-03-15T20:17:26.817Z,100.00
2019-03-15T20:19:57.490Z,100.00
2019-03-15T20:22:28.551Z,100.00
2019-03-15T20:24:59.384Z,100.00
2019-03-15T20:27:30.002Z,100.00
2019-03-15T20:30:00.621Z,100.00
2019-03-15T20:32:31.929Z,100.00
2019-03-15T20:35:03.011Z,100.00
2019-03-15T20:37:34.012Z,100.00
2019-03-15T20:40:05.116Z,100.00
2019-03-15T20:42:35.729Z,100.00
2019-03-15T20:45:08.262Z,100.00
2019-03-15T20:47:39.516Z,100.00
2019-03-15T20:50:11.844Z,100.00
2019-03-15T20:52:43.127Z,100.00
2019-03-15T20:55:13.843Z,100.00
2019-03-15T20:57:44.654Z,100.00
2019-03-15T21:00:16.271Z,100.00
2019-03-15T21:02:47.338Z,100.00
2019-03-15T21:05:18.238Z,100.00
2019-03-15T21:07:49.023Z,100.00
2019-03-15T21:10:19.614Z,100.00
2019-03-15T21:12:50.930Z,100.00
2019-03-15T21:15:21.642Z,100.00
2019-03-15T21:17:52.915Z,100.00
2019-03-15T21:20:24.046Z,100.00
2019-03-15T21:22:54.773Z,100.00
2019-03-15T21:25:26.190Z,100.00
2019-03-15T21:27:57.523Z,100.00
2019-03-15T21:30:28.387Z,100.00
2019-03-15T21:32:59.868Z,100.00
2019-03-15T21:35:30.754Z,100.00
2019-03-15T21:38:02.071Z,100.00
2019-03-15T21:40:32.979Z,100.00
2019-03-15T21:43:03.739Z,100.00
2019-03-15T21:45:34.822Z,100.00
2019-03-15T21:48:05.922Z,100.00
2019-03-15T21:50:36.966Z,100.00
2019-03-15T21:53:08.174Z,100.00
2019-03-15T21:55:39.308Z,100.00
2019-03-15T21:58:10.100Z,100.00
2019-03-15T22:00:41.245Z,100.00
2019-03-15T22:03:12.098Z,100.00
2019-03-15T22:05:42.967Z,100.00
2019-03-15T22:08:13.871Z,100.00
2019-03-15T22:10:45.032Z,100.00
2019-03-15T22:13:15.818Z,100.00
2019-03-15T22:15:47.018Z,100.00
2019-03-15T22:18:18.264Z,100.00
2019-03-15T22:20:48.923Z,100.00
2019-03-15T22:23:20.659Z,100.00
2019-03-15T22:25:51.703Z,100.00
2019-03-15T22:28:22.455Z,100.00
2019-03-15T22:30:53.689Z,100.00
2019-03-15T22:33:24.951Z,100.00
2019-03-15T22:35:55.723Z,100.00
2019-03-15T22:38:27.176Z,100.00
2019-03-15T22:40:58.359Z,100.00
2019-03-15T22:43:29.230Z,100.00
2019-03-15T22:46:00.247Z,100.00
2019-03-15T22:48:31.931Z,100.00
2019-03-15T22:51:03.158Z,100.00
2019-03-15T22:53:34.207Z,100.00
2019-03-15T22:56:04.886Z,100.00
2019-03-15T22:58:35.719Z,100.00
2019-03-15T23:01:06.958Z,100.00
2019-03-15T23:03:37.840Z,100.00
2019-03-15T23:06:08.842Z,100.00
2019-03-15T23:08:39.918Z,100.00
2019-03-15T23:11:10.608Z,100.00
2019-03-15T23:13:41.399Z,100.00
2019-03-15T23:16:12.200Z,100.00
2019-03-15T23:18:42.921Z,100.00
2019-03-15T23:21:13.631Z,100.00
2019-03-15T23:23:44.984Z,100.00
2019-03-15T23:26:16.148Z,100.00
2019-03-15T23:28:47.378Z,100.00
2019-03-15T23:31:18.286Z,100.00
2019-03-15T23:33:48.898Z,100.00
2019-03-15T23:36:19.663Z,100.00
2019-03-15T23:38:51.013Z,100.00
2019-03-15T23:41:21.751Z,100.00
2019-03-15T23:43:52.371Z,100.00
2019-03-15T23:46:23.490Z,100.00
2019-03-15T23:48:54.466Z,100.00
2019-03-15T23:51:25.089Z,100.00
2019-03-15T23:53:55.839Z,100.00
2019-03-15T23:56:26.485Z,100.00
2019-03-15T23:58:58.121Z,100.00
